Time;durP1;ratioP1;P1;durP2;ratioP2;P2;SDS_P1;SDS_P2;PMS_P1;PMS_P2;Temp;Humidity;BMP_temperature;BMP_pressure;BME280_temperature;BME280_humidity;BME280_pressure;Samples;Min_cycle;Max_cycle;Signal;HPM_P1;HPM_P2
2022/08/26 00:00:50;;;;;;;50.38;35.80;;;;;;;20.73;100.00;101337.50;4945784;28;20197;-76
2022/08/26 00:03:17;;;;;;;54.10;36.05;;;;;;;20.73;100.00;101343.78;4942752;28;20555;-77
2022/08/26 00:05:44;;;;;;;49.15;33.13;;;;;;;20.68;100.00;101354.22;4945825;28;20667;-73
2022/08/26 00:08:12;;;;;;;55.05;34.47;;;;;;;20.61;100.00;101348.56;4945931;28;20527;-76
2022/08/26 00:10:39;;;;;;;46.03;33.15;;;;;;;20.66;100.00;101350.81;4945695;28;20101;-74
2022/08/26 00:13:05;;;;;;;46.10;33.97;;;;;;;20.63;100.00;101348.41;4945601;28;20039;-73
2022/08/26 00:15:31;;;;;;;41.05;30.25;;;;;;;20.62;100.00;101352.97;4948897;28;20062;-75
2022/08/26 00:17:57;;;;;;;45.58;32.17;;;;;;;20.53;100.00;101353.00;4945320;28;20432;-75
2022/08/26 00:20:27;;;;;;;48.03;31.95;;;;;;;20.49;100.00;101344.34;4947412;28;20041;-74
2022/08/26 00:22:53;;;;;;;51.75;30.98;;;;;;;20.44;100.00;101346.63;4946772;28;20035;-79
2022/08/26 00:25:19;;;;;;;49.67;31.05;;;;;;;20.48;100.00;101349.91;4949191;28;20031;-73
2022/08/26 00:27:44;;;;;;;51.97;31.23;;;;;;;20.47;100.00;101345.47;4951740;28;20038;-74
2022/08/26 00:30:15;;;;;;;47.47;31.58;;;;;;;20.45;100.00;101353.75;4949307;28;20042;-74
2022/08/26 00:32:41;;;;;;;46.08;29.67;;;;;;;20.46;100.00;101351.88;4950280;28;20046;-72
2022/08/26 00:35:07;;;;;;;43.28;29.88;;;;;;;20.43;100.00;101353.00;4948230;28;20089;-76
2022/08/26 00:37:33;;;;;;;46.22;29.23;;;;;;;20.42;100.00;101352.16;4951904;28;20134;-74
2022/08/26 00:39:58;;;;;;;38.30;26.70;;;;;;;20.42;100.00;101354.03;4944810;28;20043;-73
2022/08/26 00:42:24;;;;;;;37.90;25.38;;;;;;;20.42;100.00;101359.44;4951193;28;20038;-73
2022/08/26 00:44:50;;;;;;;45.42;27.40;;;;;;;20.48;100.00;101364.28;4948616;28;20050;-74
2022/08/26 00:47:34;;;;;;;37.38;24.33;;;;;;;20.27;100.00;101352.78;4962117;28;20042;-75
2022/08/26 00:50:04;;;;;;;33.97;23.10;;;;;;;20.35;100.00;101358.34;4947759;28;20204;-72
2022/08/26 00:52:29;;;;;;;31.35;22.90;;;;;;;20.36;100.00;101357.34;4949115;28;20043;-73
2022/08/26 00:55:05;;;;;;;36.90;23.70;;;;;;;20.29;100.00;101359.78;4962557;28;20035;-74
2022/08/26 00:57:33;;;;;;;30.00;22.20;;;;;;;20.31;100.00;101354.22;4948103;28;20042;-75
2022/08/26 01:00:01;;;;;;;33.15;20.40;;;;;;;20.34;100.00;101351.22;4949239;28;20027;-76
2022/08/26 01:02:28;;;;;;;30.30;21.13;;;;;;;20.30;100.00;101352.50;4949870;28;20708;-76
2022/08/26 01:04:57;;;;;;;36.58;19.10;;;;;;;20.25;100.00;101354.81;4949374;28;20034;-76
2022/08/26 01:07:25;;;;;;;31.45;20.02;;;;;;;20.24;100.00;101353.13;4946186;28;20106;-74
2022/08/26 01:09:50;;;;;;;33.53;18.83;;;;;;;20.18;100.00;101357.22;4949237;28;20844;-76
2022/08/26 01:12:16;;;;;;;29.50;18.98;;;;;;;20.22;100.00;101350.53;4950659;28;20669;-78
2022/08/26 01:14:42;;;;;;;29.05;18.52;;;;;;;20.26;100.00;101351.94;4950386;28;20038;-75
2022/08/26 01:17:08;;;;;;;27.00;18.45;;;;;;;20.22;100.00;101353.22;4944448;28;20042;-76
2022/08/26 01:20:00;;;;;;;30.27;17.30;;;;;;;20.28;100.00;101351.78;4944073;28;20553;-75
2022/08/26 01:22:49;;;;;;;29.23;16.45;;;;;;;20.30;100.00;101350.66;4948152;28;20043;-77
2022/08/26 01:25:15;;;;;;;22.88;15.48;;;;;;;20.23;100.00;101352.25;4942840;28;20046;-76
2022/08/26 01:27:41;;;;;;;28.52;17.08;;;;;;;20.21;100.00;101353.41;4963904;28;20037;-73
2022/08/26 01:30:07;;;;;;;32.78;16.35;;;;;;;20.26;100.00;101346.53;4944399;28;20260;-75
2022/08/26 01:32:35;;;;;;;23.42;14.48;;;;;;;20.15;100.00;101354.84;4961161;28;20035;-72
2022/08/26 01:35:01;;;;;;;26.45;15.50;;;;;;;20.24;100.00;101351.25;4946592;28;20050;-77
2022/08/26 01:37:33;;;;;;;21.08;13.98;;;;;;;20.26;100.00;101361.94;4945939;28;20046;-75
2022/08/26 01:39:59;;;;;;;22.25;13.75;;;;;;;20.26;100.00;101351.94;4946944;28;20053;-72
2022/08/26 01:42:26;;;;;;;21.73;15.60;;;;;;;20.27;100.00;101356.34;4952958;28;20069;-75
2022/08/26 01:45:15;;;;;;;19.20;13.30;;;;;;;20.28;100.00;101354.50;4948782;28;20058;-74
2022/08/26 01:47:41;;;;;;;22.08;13.68;;;;;;;20.38;100.00;101360.72;4946692;28;20054;-75
2022/08/26 01:50:16;;;;;;;20.80;13.77;;;;;;;20.38;100.00;101363.44;4946586;28;20042;-74
2022/08/26 01:52:44;;;;;;;25.08;12.80;;;;;;;20.36;100.00;101362.75;4945216;28;20041;-76
2022/08/26 01:55:14;;;;;;;19.35;12.07;;;;;;;20.43;100.00;101358.44;4947854;28;20062;-75
2022/08/26 01:57:43;;;;;;;23.85;11.43;;;;;;;20.52;100.00;101364.84;4952680;28;20039;-76
2022/08/26 02:00:14;;;;;;;18.38;10.63;;;;;;;20.40;100.00;101367.72;4947389;28;20035;-73
2022/08/26 02:02:46;;;;;;;19.90;11.07;;;;;;;20.57;100.00;101365.25;4947390;28;20045;-74
2022/08/26 02:05:18;;;;;;;28.95;11.45;;;;;;;20.55;100.00;101367.28;4950902;28;20419;-77
2022/08/26 02:07:45;;;;;;;21.65;10.35;;;;;;;20.56;100.00;101367.13;4943539;28;20101;-74
2022/08/26 02:10:11;;;;;;;19.80;11.07;;;;;;;20.57;100.00;101371.53;4948251;28;20074;-74
2022/08/26 02:12:38;;;;;;;21.65;10.90;;;;;;;20.55;100.00;101362.72;4947085;28;20035;-75
2022/08/26 02:15:08;;;;;;;26.83;11.63;;;;;;;20.55;100.00;101364.56;4948790;28;20047;-75
2022/08/26 02:17:42;;;;;;;14.02;10.52;;;;;;;20.52;100.00;101367.56;4960514;28;20041;-76
2022/08/26 02:20:13;;;;;;;24.73;10.95;;;;;;;20.49;100.00;101366.03;4944842;28;20669;-78
2022/08/26 02:22:40;;;;;;;20.15;11.52;;;;;;;20.46;100.00;101373.56;4949390;28;20049;-75
2022/08/26 02:25:30;;;;;;;23.25;11.13;;;;;;;20.50;100.00;101369.59;4946081;28;20050;-76
2022/08/26 02:27:55;;;;;;;15.00;10.48;;;;;;;20.51;100.00;101363.16;4945633;28;20065;-76
2022/08/26 02:30:31;;;;;;;28.52;10.52;;;;;;;20.53;100.00;101367.41;4952746;28;20034;-74
2022/08/26 02:32:58;;;;;;;23.63;10.52;;;;;;;20.51;100.00;101357.75;4946690;28;20042;-77
2022/08/26 02:35:24;;;;;;;18.50;11.82;;;;;;;20.48;100.00;101366.16;4946951;28;20179;-74
2022/08/26 02:37:51;;;;;;;18.73;10.23;;;;;;;20.44;100.00;101366.44;4949108;28;20502;-73
2022/08/26 02:40:23;;;;;;;23.30;11.73;;;;;;;20.43;100.00;101372.84;4949721;28;20031;-73
2022/08/26 02:42:49;;;;;;;20.65;10.38;;;;;;;20.36;100.00;101369.03;4949200;28;20035;-75
2022/08/26 02:45:14;;;;;;;16.42;10.50;;;;;;;20.32;100.00;101374.88;4949452;28;20062;-75
2022/08/26 02:47:40;;;;;;;22.85;10.90;;;;;;;20.18;100.00;101371.66;4943339;28;20045;-74
2022/08/26 02:50:06;;;;;;;18.88;10.35;;;;;;;20.16;100.00;101364.66;4952169;28;20066;-75
2022/08/26 02:52:31;;;;;;;23.35;10.93;;;;;;;20.01;100.00;101364.28;4949949;28;20405;-76
2022/08/26 02:54:57;;;;;;;31.50;13.07;;;;;;;19.79;100.00;101364.59;4948794;28;20034;-74
2022/08/26 02:57:22;;;;;;;20.00;12.32;;;;;;;19.81;100.00;101368.00;4949053;28;20031;-77
2022/08/26 02:59:48;;;;;;;23.60;13.15;;;;;;;19.81;100.00;101368.88;4947914;28;20659;-76
2022/08/26 03:02:13;;;;;;;24.63;13.95;;;;;;;19.88;100.00;101364.59;4950010;28;20113;-72
2022/08/26 03:04:39;;;;;;;27.88;14.20;;;;;;;19.86;100.00;101372.00;4949752;28;20034;-74
2022/08/26 03:07:06;;;;;;;24.00;12.60;;;;;;;19.84;100.00;101370.44;4949787;28;20896;-75
2022/08/26 03:09:31;;;;;;;20.83;13.32;;;;;;;19.86;100.00;101380.09;4947855;28;20118;-74
2022/08/26 03:11:57;;;;;;;22.27;12.63;;;;;;;19.87;100.00;101387.22;4947403;28;20508;-73
2022/08/26 03:14:23;;;;;;;20.27;10.07;;;;;;;19.79;100.00;101384.41;4948859;28;20039;-74
2022/08/26 03:16:52;;;;;;;13.73;9.48;;;;;;;19.86;100.00;101376.56;4951569;28;20101;-73
2022/08/26 03:19:19;;;;;;;19.25;9.23;;;;;;;19.71;100.00;101378.84;4946984;28;20081;-72
2022/08/26 03:21:45;;;;;;;21.77;9.23;;;;;;;19.77;100.00;101380.97;4948602;28;20712;-73
2022/08/26 03:24:11;;;;;;;16.05;8.20;;;;;;;19.80;100.00;101383.41;4948716;28;20221;-77
2022/08/26 03:26:37;;;;;;;14.32;7.45;;;;;;;19.76;100.00;101371.16;4948946;28;20563;-76
2022/08/26 03:31:48;;;;;;;15.38;7.70;;;;;;;19.57;100.00;101365.72;4948605;28;20722;-75
2022/08/26 03:34:14;;;;;;;15.75;6.32;;;;;;;19.65;100.00;101371.31;4946997;28;20111;-75
2022/08/26 03:36:39;;;;;;;7.82;5.53;;;;;;;19.58;100.00;101362.03;4949408;28;20149;-74
2022/08/26 03:39:05;;;;;;;23.05;6.65;;;;;;;19.56;100.00;101362.16;4950361;28;20518;-73
2022/08/26 03:41:33;;;;;;;13.35;6.05;;;;;;;19.61;100.00;101362.59;4949245;28;20029;-76
2022/08/26 03:43:58;;;;;;;19.88;6.47;;;;;;;19.66;100.00;101368.44;4946048;28;20043;-75
2022/08/26 03:46:24;;;;;;;16.58;5.93;;;;;;;19.66;100.00;101364.88;4948276;28;20046;-76
2022/08/26 03:48:49;;;;;;;18.70;6.55;;;;;;;19.66;100.00;101373.84;4945739;28;20034;-74
2022/08/26 03:51:17;;;;;;;11.30;5.45;;;;;;;19.74;100.00;101375.00;4947613;28;20041;-75
2022/08/26 03:53:43;;;;;;;17.50;6.18;;;;;;;19.59;100.00;101378.16;4985212;23;20170;-74
2022/08/26 03:56:09;;;;;;;11.73;6.30;;;;;;;19.70;100.00;101377.13;5012671;28;20759;-74
2022/08/26 03:58:36;;;;;;;16.77;5.90;;;;;;;19.73;100.00;101381.41;5010675;28;20054;-74
2022/08/26 04:01:02;;;;;;;10.50;5.93;;;;;;;19.78;100.00;101385.41;4999266;28;20049;-73
2022/08/26 04:06:13;;;;;;;16.75;7.20;;;;;;;19.82;100.00;101388.66;5008269;28;20046;-74
2022/08/26 04:08:38;;;;;;;11.10;5.50;;;;;;;19.80;100.00;101385.25;4997823;28;20037;-73
2022/08/26 04:11:05;;;;;;;16.58;6.00;;;;;;;19.65;100.00;101382.13;5004247;28;20438;-72
2022/08/26 04:13:31;;;;;;;8.07;4.95;;;;;;;19.75;100.00;101385.69;5000265;28;20026;-75
2022/08/26 04:15:56;;;;;;;11.88;5.38;;;;;;;19.72;100.00;101390.53;5002472;28;20088;-75
2022/08/26 04:18:22;;;;;;;13.32;5.60;;;;;;;19.77;100.00;101388.25;4998737;28;20120;-74
2022/08/26 04:20:48;;;;;;;12.98;5.03;;;;;;;19.81;100.00;101387.81;5000268;28;21382;-74
2022/08/26 04:23:13;;;;;;;12.60;4.55;;;;;;;19.82;100.00;101388.66;4997740;28;20540;-74
2022/08/26 04:25:39;;;;;;;14.43;5.35;;;;;;;19.78;100.00;101398.06;5000212;28;20482;-74
2022/08/26 04:28:05;;;;;;;8.63;4.35;;;;;;;19.87;100.00;101392.63;4998799;28;20061;-74
2022/08/26 04:30:31;;;;;;;19.75;4.90;;;;;;;19.81;100.00;101397.78;4999107;28;20037;-75
2022/08/26 04:32:57;;;;;;;9.98;4.57;;;;;;;19.93;100.00;101388.53;4996707;28;20056;-74
2022/08/26 04:35:23;;;;;;;10.75;5.22;;;;;;;19.85;100.00;101385.69;4998580;28;20679;-74
2022/08/26 04:37:49;;;;;;;13.13;4.72;;;;;;;19.84;100.00;101387.53;5001323;28;20103;-73
2022/08/26 04:40:15;;;;;;;14.10;4.32;;;;;;;19.79;100.00;101378.13;4997031;28;20041;-72
2022/08/26 04:42:40;;;;;;;8.82;3.75;;;;;;;19.90;100.00;101380.69;5000494;28;20041;-73
2022/08/26 04:45:07;;;;;;;10.85;4.57;;;;;;;19.78;100.00;101389.94;4999878;28;20100;-74
2022/08/26 04:47:33;;;;;;;13.38;3.63;;;;;;;19.83;100.00;101396.66;4994211;28;20129;-73
2022/08/26 04:49:58;;;;;;;11.32;4.50;;;;;;;19.86;100.00;101398.22;4993863;28;20108;-73
2022/08/26 04:52:25;;;;;;;9.10;3.35;;;;;;;19.79;100.00;101388.97;4997463;28;20046;-72
2022/08/26 04:54:51;;;;;;;9.32;3.65;;;;;;;19.72;100.00;101395.94;5000077;28;20050;-73
2022/08/26 04:57:17;;;;;;;6.65;2.97;;;;;;;19.78;100.00;101396.22;4996990;28;20049;-73
2022/08/26 04:59:46;;;;;;;6.82;3.20;;;;;;;19.75;100.00;101398.38;4998281;28;20038;-74
2022/08/26 05:02:12;;;;;;;8.73;2.97;;;;;;;19.81;100.00;101395.94;4999276;28;20042;-73
2022/08/26 05:04:39;;;;;;;7.13;2.50;;;;;;;19.94;100.00;101394.78;4997795;28;20045;-73
2022/08/26 05:07:05;;;;;;;7.30;2.75;;;;;;;20.01;100.00;101401.31;4997071;28;20880;-72
2022/08/26 05:09:30;;;;;;;7.00;3.05;;;;;;;19.95;100.00;101394.63;4999216;28;20043;-72
2022/08/26 05:11:55;;;;;;;7.05;3.67;;;;;;;19.98;100.00;101399.78;4992150;28;20038;-73
2022/08/26 05:14:22;;;;;;;10.43;3.25;;;;;;;20.03;100.00;101405.63;4996248;28;20034;-71
2022/08/26 05:16:47;;;;;;;8.52;3.10;;;;;;;20.11;100.00;101400.31;5004503;28;20073;-72
2022/08/26 05:19:13;;;;;;;8.77;2.85;;;;;;;20.07;100.00;101400.75;5000669;28;20038;-71
2022/08/26 05:21:38;;;;;;;14.10;3.00;;;;;;;20.09;100.00;101401.47;4999244;28;20022;-72
2022/08/26 05:24:04;;;;;;;8.40;3.05;;;;;;;20.12;100.00;101404.72;5000519;28;20041;-73
2022/08/26 05:26:30;;;;;;;4.95;2.78;;;;;;;20.16;100.00;101414.25;5001884;28;20034;-72
2022/08/26 05:28:56;;;;;;;6.72;2.35;;;;;;;20.13;100.00;101409.16;4997764;28;20481;-73
2022/08/26 05:31:30;;;;;;;8.63;2.60;;;;;;;20.23;100.00;101416.38;5007630;28;20153;-72
2022/08/26 05:33:56;;;;;;;6.85;3.10;;;;;;;20.13;100.00;101422.69;4989701;28;20046;-75
2022/08/26 05:36:24;;;;;;;7.38;2.60;;;;;;;20.11;100.00;101421.13;4997504;28;20034;-73
2022/08/26 05:38:50;;;;;;;11.05;2.42;;;;;;;20.12;100.00;101420.09;5000904;28;20077;-73
2022/08/26 05:41:19;;;;;;;6.53;2.45;;;;;;;20.30;100.00;101425.66;5001473;28;20041;-73
2022/08/26 05:43:45;;;;;;;11.90;3.03;;;;;;;20.38;100.00;101432.06;4995657;28;20045;-72
2022/08/26 05:46:10;;;;;;;12.52;3.55;;;;;;;20.47;100.00;101432.19;4999915;28;20061;-73
2022/08/26 05:48:37;;;;;;;7.55;2.53;;;;;;;20.34;100.00;101430.63;5001375;28;20452;-73
2022/08/26 05:51:05;;;;;;;12.60;2.50;;;;;;;20.39;100.00;101441.03;4992374;28;20115;-73
2022/08/26 05:53:31;;;;;;;8.50;2.65;;;;;;;20.38;100.00;101437.47;4999082;28;20092;-72
2022/08/26 05:55:57;;;;;;;10.57;2.50;;;;;;;20.40;100.00;101440.03;4999158;28;20041;-73
2022/08/26 05:58:24;;;;;;;6.93;2.53;;;;;;;20.46;100.00;101438.56;4995892;28;20574;-74
2022/08/26 06:01:19;;;;;;;10.20;3.00;;;;;;;20.48;100.00;101440.16;5004087;28;20044;-74
2022/08/26 06:03:48;;;;;;;5.82;2.33;;;;;;;20.44;100.00;101438.72;4990531;28;20062;-73
2022/08/26 06:06:20;;;;;;;8.10;2.50;;;;;;;20.39;100.00;101438.31;4998483;28;20066;-74
2022/08/26 06:08:46;;;;;;;10.07;2.45;;;;;;;20.35;100.00;101445.03;5002279;28;20509;-76
2022/08/26 06:11:15;;;;;;;11.30;2.78;;;;;;;20.45;100.00;101454.00;5001933;28;20034;-74
2022/08/26 06:13:41;;;;;;;7.00;2.63;;;;;;;20.47;100.00;101452.00;5003874;28;20066;-74
2022/08/26 06:16:09;;;;;;;10.15;2.42;;;;;;;20.54;100.00;101453.16;5007191;28;20042;-75
2022/08/26 06:18:39;;;;;;;14.43;2.80;;;;;;;20.52;100.00;101446.16;5016836;28;20069;-75
2022/08/26 06:21:11;;;;;;;10.38;2.25;;;;;;;20.61;100.00;101456.09;4996970;28;20038;-74
2022/08/26 06:26:20;;;;;;;5.78;2.50;;;;;;;20.31;100.00;101449.88;4997728;28;20042;-74
2022/08/26 06:28:46;;;;;;;11.27;2.75;;;;;;;20.38;100.00;101452.84;4998949;28;20038;-74
2022/08/26 06:31:12;;;;;;;11.25;2.38;;;;;;;20.51;100.00;101460.69;5001485;28;20038;-74
2022/08/26 06:33:38;;;;;;;14.40;2.40;;;;;;;20.38;100.00;101456.44;4997933;28;20037;-74
2022/08/26 06:36:04;;;;;;;5.88;2.08;;;;;;;20.49;100.00;101460.84;5000882;28;20576;-75
2022/08/26 06:38:29;;;;;;;7.35;2.05;;;;;;;20.54;100.00;101460.41;4999281;28;20915;-76
2022/08/26 06:40:55;;;;;;;7.22;2.42;;;;;;;20.66;100.00;101467.34;4997293;28;20038;-75
2022/08/26 06:43:24;;;;;;;7.65;1.88;;;;;;;20.71;100.00;101465.06;5001429;28;20041;-75
2022/08/26 06:45:51;;;;;;;12.50;2.58;;;;;;;20.59;100.00;101460.84;4996195;28;20042;-75
2022/08/26 06:48:19;;;;;;;9.15;2.15;;;;;;;20.81;100.00;101471.31;4996871;28;20057;-74
2022/08/26 06:50:45;;;;;;;11.57;2.10;;;;;;;20.99;100.00;101457.81;4993222;28;20038;-74
2022/08/26 06:53:12;;;;;;;5.05;1.80;;;;;;;20.83;100.00;101458.44;4996397;28;20034;-73
2022/08/26 06:55:46;;;;;;;11.25;2.33;;;;;;;20.89;100.00;101465.16;4999405;28;20030;-74
2022/08/26 06:58:13;;;;;;;8.52;2.20;;;;;;;21.03;100.00;101464.63;4998143;28;20581;-74
2022/08/26 07:00:39;;;;;;;8.30;1.90;;;;;;;21.06;100.00;101464.34;4991073;28;20112;-73
2022/08/26 07:03:06;;;;;;;10.98;2.00;;;;;;;21.29;100.00;101466.66;4993398;28;20053;-75
2022/08/26 07:05:32;;;;;;;9.95;2.35;;;;;;;21.35;100.00;101472.38;4992968;28;20046;-73
2022/08/26 07:07:58;;;;;;;13.48;2.55;;;;;;;21.28;100.00;101471.22;4994666;28;20121;-74
2022/08/26 07:10:24;;;;;;;14.07;2.33;;;;;;;21.30;100.00;101471.09;4982057;28;20120;-74
2022/08/26 07:12:50;;;;;;;5.60;2.35;;;;;;;21.11;100.00;101462.03;4989177;28;20057;-74
2022/08/26 07:15:15;;;;;;;11.48;2.03;;;;;;;21.03;100.00;101467.34;4991036;28;20045;-74
2022/08/26 07:17:41;;;;;;;5.32;1.48;;;;;;;21.44;100.00;101463.31;4974088;28;20077;-74
2022/08/26 07:20:08;;;;;;;12.25;2.00;;;;;;;21.46;100.00;101468.59;4997275;28;20042;-74
2022/08/26 07:22:35;;;;;;;8.18;2.47;;;;;;;21.36;100.00;101475.94;4997662;28;20045;-74
2022/08/26 07:25:00;;;;;;;10.73;2.42;;;;;;;21.48;100.00;101473.84;4968010;28;20054;-74
2022/08/26 07:27:26;;;;;;;10.15;2.22;;;;;;;21.31;100.00;101481.81;4994529;28;20697;-74
2022/08/26 07:29:55;;;;;;;7.25;1.70;;;;;;;21.37;100.00;101481.19;4993373;28;20054;-74
2022/08/26 07:32:21;;;;;;;4.32;1.67;;;;;;;21.27;100.00;101490.38;4998716;28;20044;-73
2022/08/26 07:34:46;;;;;;;9.23;1.92;;;;;;;21.22;100.00;101485.38;4996538;28;20050;-75
2022/08/26 07:37:12;;;;;;;13.50;2.22;;;;;;;21.15;100.00;101492.44;4993262;28;20046;-73
2022/08/26 07:39:40;;;;;;;4.88;2.50;;;;;;;21.33;100.00;101490.63;4992409;28;20466;-73
2022/08/26 07:42:07;;;;;;;4.97;1.73;;;;;;;21.23;100.00;101489.81;4993438;28;20053;-74
2022/08/26 07:44:33;;;;;;;8.73;2.92;;;;;;;21.42;100.00;101489.72;4992026;28;20483;-73
2022/08/26 07:46:59;;;;;;;6.43;1.60;;;;;;;21.77;100.00;101501.66;4995463;28;20088;-74
2022/08/26 07:49:25;;;;;;;10.73;3.90;;;;;;;21.85;100.00;101507.19;4973408;28;20133;-74
2022/08/26 07:51:53;;;;;;;10.45;2.22;;;;;;;21.93;100.00;101504.53;4997595;28;20061;-74
2022/08/26 07:54:19;;;;;;;10.57;2.10;;;;;;;22.22;98.73;101507.03;4985343;28;20046;-74
2022/08/26 07:56:46;;;;;;;5.47;1.52;;;;;;;22.36;96.67;101508.34;4986593;28;20620;-73
2022/08/26 07:59:12;;;;;;;7.03;1.58;;;;;;;22.33;97.56;101507.78;4997487;28;20045;-74
2022/08/26 08:01:37;;;;;;;8.18;1.90;;;;;;;22.43;97.08;101520.28;4994013;28;20030;-74
2022/08/26 08:04:04;;;;;;;6.47;1.73;;;;;;;22.43;95.44;101517.56;4990110;28;20060;-74
2022/08/26 08:06:29;;;;;;;6.07;1.50;;;;;;;22.23;97.35;101516.03;4986804;28;20038;-74
2022/08/26 08:08:55;;;;;;;3.38;1.30;;;;;;;22.57;93.30;101515.28;4996631;28;20038;-74
2022/08/26 08:11:21;;;;;;;8.98;2.40;;;;;;;22.59;96.15;101513.25;4995727;28;20054;-75
2022/08/26 08:13:47;;;;;;;6.18;1.65;;;;;;;22.42;95.89;101509.56;4998347;28;20041;-74
2022/08/26 08:16:12;;;;;;;6.82;2.17;;;;;;;22.52;94.95;101510.31;4997676;28;20045;-74
2022/08/26 08:18:39;;;;;;;3.63;1.20;;;;;;;22.52;93.27;101509.47;4993055;28;20091;-74
2022/08/26 08:21:04;;;;;;;4.50;1.40;;;;;;;22.93;92.66;101510.63;4988875;28;20052;-73
2022/08/26 08:23:30;;;;;;;7.28;1.45;;;;;;;23.02;92.04;101506.94;4994384;28;20034;-73
2022/08/26 08:26:05;;;;;;;7.88;1.70;;;;;;;22.77;90.95;101503.19;4997756;28;20038;-73
2022/08/26 08:28:31;;;;;;;13.60;1.92;;;;;;;22.95;92.83;101503.16;4990414;28;20383;-73
2022/08/26 08:30:56;;;;;;;3.88;1.40;;;;;;;23.15;89.10;101506.50;4990317;28;20048;-73
2022/08/26 08:33:22;;;;;;;8.23;1.52;;;;;;;23.17;91.29;101515.34;4991117;28;20030;-73
2022/08/26 08:35:48;;;;;;;8.57;1.80;;;;;;;22.86;93.77;101506.81;4991681;28;20495;-73
2022/08/26 08:38:14;;;;;;;4.45;1.80;;;;;;;22.98;90.16;101520.00;4991553;28;20100;-72
2022/08/26 08:40:42;;;;;;;4.28;1.70;;;;;;;23.46;90.67;101515.78;4994332;28;20549;-73
2022/08/26 08:43:10;;;;;;;5.32;1.40;;;;;;;23.23;92.15;101511.97;4993370;28;20037;-72
2022/08/26 08:45:41;;;;;;;3.78;1.30;;;;;;;23.26;88.29;101514.38;4993046;28;20030;-72
2022/08/26 08:48:29;;;;;;;6.97;2.30;;;;;;;23.54;91.32;101512.22;4986202;28;20057;-74
2022/08/26 08:51:15;;;;;;;5.72;1.67;;;;;;;23.41;88.92;101520.03;4993918;28;20076;-73
2022/08/26 08:53:44;;;;;;;4.20;1.42;;;;;;;23.57;90.45;101514.63;4990659;28;20391;-73
2022/08/26 08:56:30;;;;;;;4.68;1.67;;;;;;;23.45;88.72;101510.53;4994172;28;20073;-73
2022/08/26 08:59:07;;;;;;;4.68;1.45;;;;;;;23.54;91.09;101504.06;4996822;28;20033;-73
2022/08/26 09:02:04;;;;;;;7.80;1.38;;;;;;;23.86;87.38;101503.34;4991731;28;20125;-73
2022/08/26 09:05:20;;;;;;;5.25;1.52;;;;;;;24.05;85.18;101507.63;4991588;28;20057;-72
2022/08/26 09:07:58;;;;;;;10.27;2.28;;;;;;;24.46;83.07;101515.84;4989672;28;20490;-73
2022/08/26 09:10:35;;;;;;;3.53;1.92;;;;;;;24.20;82.71;101513.25;4982090;28;20053;-77
2022/08/26 09:13:09;;;;;;;2.72;1.10;;;;;;;24.10;83.34;101513.41;4969906;28;20491;-75
2022/08/26 09:15:59;;;;;;;13.40;1.90;;;;;;;24.02;84.57;101516.13;4996287;28;20033;-75
2022/08/26 09:18:46;;;;;;;7.20;1.77;;;;;;;23.85;84.34;101517.13;4987845;28;20053;-74
2022/08/26 09:21:15;;;;;;;8.98;2.03;;;;;;;23.94;83.46;101514.22;4999307;28;20128;-73
2022/08/26 09:23:42;;;;;;;10.32;2.22;;;;;;;24.08;87.79;101517.31;4989029;28;20656;-73
2022/08/26 09:26:16;;;;;;;7.53;1.58;;;;;;;23.81;88.19;101522.06;4991628;28;20057;-73
2022/08/26 09:28:52;;;;;;;5.18;1.63;;;;;;;23.95;85.10;101515.09;4979750;28;20562;-72
2022/08/26 09:31:22;;;;;;;6.63;1.88;;;;;;;23.61;87.51;101516.00;4999446;28;20037;-73
2022/08/26 09:33:48;;;;;;;6.30;1.42;;;;;;;23.98;83.48;101521.06;4991001;28;20038;-73
2022/08/26 09:36:38;;;;;;;4.88;1.73;;;;;;;23.68;85.02;101525.25;5000269;28;20133;-72
2022/08/26 09:39:26;;;;;;;9.52;1.80;;;;;;;23.40;86.31;101523.78;4989181;28;20049;-72
2022/08/26 09:42:24;;;;;;;4.47;1.60;;;;;;;23.49;89.34;101525.50;4983985;28;20160;-73
2022/08/26 09:44:55;;;;;;;6.95;2.00;;;;;;;23.74;84.50;101523.72;4992196;28;20117;-72
2022/08/26 09:47:26;;;;;;;4.22;1.45;;;;;;;23.63;86.41;101518.56;4989891;28;20676;-73
2022/08/26 09:50:22;;;;;;;3.90;1.27;;;;;;;23.75;84.16;101526.31;4995023;28;20531;-73
2022/08/26 09:53:01;;;;;;;7.70;1.80;;;;;;;23.65;86.30;101520.16;4994089;28;20051;-73
2022/08/26 09:55:27;;;;;;;6.72;1.90;;;;;;;23.70;84.23;101512.34;4984729;28;20042;-74
2022/08/26 09:57:54;;;;;;;3.58;1.65;;;;;;;23.80;88.06;101523.09;4996005;28;20045;-74
2022/08/26 10:00:35;;;;;;;3.88;1.25;;;;;;;23.91;85.77;101511.84;4994335;28;20038;-74
2022/08/26 10:03:04;;;;;;;8.57;1.77;;;;;;;23.91;83.54;101517.31;4994593;28;20749;-74
2022/08/26 10:05:44;;;;;;;8.02;1.50;;;;;;;23.94;83.76;101513.38;4995461;28;20034;-74
2022/08/26 10:08:25;;;;;;;5.63;1.50;;;;;;;23.96;85.07;101517.66;4988596;28;20107;-74
2022/08/26 10:10:51;;;;;;;5.97;1.30;;;;;;;24.07;83.81;101516.47;4984772;28;20048;-73
2022/08/26 10:13:25;;;;;;;6.95;1.65;;;;;;;23.66;85.23;101521.00;4990988;28;20048;-73
2022/08/26 10:16:19;;;;;;;4.32;1.58;;;;;;;23.91;84.96;101514.59;4986379;28;20212;-74
2022/08/26 10:18:52;;;;;;;7.40;1.63;;;;;;;23.17;86.74;101518.06;4989879;28;20452;-74
2022/08/26 10:21:25;;;;;;;10.45;1.90;;;;;;;23.63;86.73;101514.00;4990095;28;20141;-73
2022/08/26 10:23:55;;;;;;;3.90;1.77;;;;;;;23.41;88.04;101515.44;4995367;28;20038;-73
2022/08/26 10:26:33;;;;;;;4.10;1.52;;;;;;;23.38;87.86;101520.34;4993604;28;20053;-73
2022/08/26 10:29:07;;;;;;;4.32;1.60;;;;;;;23.53;86.72;101522.28;4997355;28;20065;-73
2022/08/26 10:31:55;;;;;;;2.97;1.58;;;;;;;23.51;88.15;101520.75;4988709;28;20133;-73
2022/08/26 10:34:21;;;;;;;3.92;1.42;;;;;;;23.64;86.52;101515.69;4991137;28;20131;-74
2022/08/26 10:37:07;;;;;;;5.95;1.85;;;;;;;24.19;81.62;101517.81;4988155;28;20664;-74
2022/08/26 10:39:59;;;;;;;10.00;2.35;;;;;;;24.47;82.72;101523.84;4995011;28;20046;-74
2022/08/26 10:42:34;;;;;;;;;;;;;;;24.46;81.21;101521.28;4985316;28;20027;-74
2022/08/26 10:45:24;;;;;;;6.57;1.35;;;;;;;24.29;82.67;101521.25;4990523;28;19921;-73
2022/08/26 10:47:54;;;;;;;4.80;1.50;;;;;;;24.30;82.46;101527.56;4993259;28;20048;-73
2022/08/26 10:50:23;;;;;;;5.55;1.90;;;;;;;24.32;81.99;101517.34;4979958;28;20050;-74
2022/08/26 10:53:15;;;;;;;6.32;2.10;;;;;;;25.03;80.28;101516.56;4974824;28;20049;-74
2022/08/26 10:56:10;;;;;;;7.05;1.92;;;;;;;24.70;78.94;101524.00;4990192;28;20034;-74
2022/08/26 10:59:03;;;;;;;6.88;2.67;;;;;;;24.59;79.17;101526.19;4998953;28;20466;-73
2022/08/26 11:02:06;;;;;;;8.23;2.25;;;;;;;24.58;82.13;101525.34;4994623;28;20096;-73
2022/08/26 11:04:31;;;;;;;5.40;1.60;;;;;;;24.76;78.94;101526.03;4999176;28;20030;-74
2022/08/26 11:07:35;;;;;;;6.68;1.77;;;;;;;24.60;78.56;101522.44;4992080;28;20045;-73
2022/08/26 11:10:21;;;;;;;7.45;1.92;;;;;;;25.12;80.18;101528.34;4988159;28;20117;-73
2022/08/26 11:12:50;;;;;;;5.82;1.45;;;;;;;25.20;77.56;101528.31;4990525;28;20137;-73
2022/08/26 11:15:18;;;;;;;9.07;1.98;;;;;;;25.01;77.71;101536.88;4993360;28;20174;-73
2022/08/26 11:17:44;;;;;;;5.20;1.80;;;;;;;24.91;76.91;101533.50;4994577;28;20118;-73
2022/08/26 11:20:32;;;;;;;5.28;1.48;;;;;;;24.63;78.92;101539.31;4992577;28;20506;-73
2022/08/26 11:23:19;;;;;;;5.50;2.20;;;;;;;24.21;81.64;101532.16;4986417;28;20042;-73
2022/08/26 11:25:57;;;;;;;4.28;1.60;;;;;;;24.26;81.75;101537.09;4986795;28;20108;-73
2022/08/26 11:28:49;;;;;;;9.45;1.77;;;;;;;24.61;78.42;101526.91;4995871;28;20052;-73
2022/08/26 11:31:17;;;;;;;7.40;1.97;;;;;;;24.57;81.57;101531.00;4988686;28;20041;-73
2022/08/26 11:33:42;;;;;;;6.32;2.13;;;;;;;24.51;78.84;101519.75;4991797;28;20057;-73
2022/08/26 11:36:09;;;;;;;9.98;2.20;;;;;;;24.54;81.67;101530.28;4998006;28;20723;-73